EW2984 Weather Reports


Display with metric or nautical units.
time (UTC)temp
F
wind
direction
speed
MPH
gust
MPH
rain 1hr
in
rain 24hr
in
rain mn
in
humidity
%
barometer
mb
20200711021554 73 237 0.0 2.0 0.00 0.07 0.07 90 1007.6
20200711020033 73 231 0.0 2.0 0.00 0.07 0.07 90 1007.6
20200711014530 73 243 0.0 1.0 0.00 0.07 0.07 91 1007.6
20200711013027 73 285 0.0 1.0 0.00 0.07 0.07 91 1007.7
20200711011527 73 285 0.0 1.0 0.00 0.07 0.07 90 1007.4
20200711010058 73 297 0.0 1.0 0.00 0.07 0.07 89 1007.3
20200711004525 74 343 0.0 1.0 0.00 0.07 0.07 88 1007.2
20200711003025 74 5 0.0 1.0 0.00 0.07 0.07 88 1006.9
20200711001534 75 214 0.0 1.0 0.00 0.07 0.07 88 1007.0
20200711000019 75 200 0.0 0.0 0.00 0.07 0.07 87 1006.6
20200710234524 76 200 0.0 3.0 0.00 0.07 0.07 85 1006.8
20200710233042 76 315 0.0 7.0 0.00 0.07 0.07 86 1007.0
20200710231522 76 321 0.0 4.0 0.00 0.07 0.07 86 1007.2
20200710230038 76 186 0.0 3.0 0.00 0.07 0.07 87 1007.2
20200710224523 75 305 0.0 1.0 0.00 0.07 0.07 89 1007.1
20200710223014 75 300 0.0 3.0 0.00 0.07 0.07 89 1007.2
20200710221523 75 266 1.0 3.0 0.00 0.07 0.07 88 1007.2
20200710220019 76 290 0.0 3.0 0.00 0.07 0.07 89 1007.4
20200710214508 75 80 1.0 10.0 0.00 0.07 0.07 89 1007.7
20200710213005 76 355 1.0 3.0 0.01 0.07 0.07 89 1007.8
20200710211504 76 252 0.0 4.0 0.01 0.07 0.07 91 1008.0
20200710210145 75 309 1.0 4.0 0.01 0.07 0.07 91 1008.4
20200710204747 76 321 0.0 5.0 0.02 0.07 0.07 91 1008.5
20200710203125 75 53 1.0 7.0 0.01 0.06 0.06 93 1008.8
20200710201656 75 98 0.0 4.0 0.02 0.06 0.06 95 1008.8
20200710200128 74 58 1.0 4.0 0.02 0.06 0.06 95 1009.0
20200710194630 74 49 0.0 8.0 0.01 0.05 0.05 94 1009.0
20200710193215 74 15 0.0 5.0 0.01 0.05 0.05 93 1009.2
20200710191616 74 310 0.0 7.0 0.00 0.04 0.04 94 1009.4
20200710190225 74 75 1.0 6.0 0.00 0.04 0.04 94 1009.6
20200710184559 74 248 0.0 5.0 0.00 0.04 0.04 94 1009.9
20200710183055 74 357 1.0 5.0 0.01 0.04 0.04 95 1010.0
20200710181704 74 353 0.0 6.0 0.02 0.04 0.04 94 1010.3
20200710180112 74 304 0.0 3.0 0.03 0.04 0.04 95 1010.4
20200710174547 74 334 1.0 6.0 0.04 0.04 0.04 95 1010.5
20200710173053 74 314 0.0 2.0 0.03 0.03 0.03 94 1010.7
20200710171537 74 59 0.0 2.0 0.02 0.02 0.02 94 1010.9
20200710170058 74 45 0.0 5.0 0.01 0.01 0.01 93 1011.1
20200710164539 75 71 0.0 5.0 0.00 0.00 0.00 92 1011.2
20200710163040 75 76 1.0 6.0 0.00 0.00 0.00 88 1011.3
20200710161525 75 107 2.0 7.0 0.00 0.00 0.00 88 1011.6
20200710160044 75 34 1.0 5.0 0.00 0.00 0.00 88 1011.8
20200710154535 75 53 1.0 5.0 0.00 0.00 0.00 88 1011.8
20200710153030 75 78 2.0 6.0 0.00 0.00 0.00 88 1011.9
20200710151558 75 90 1.0 4.0 0.00 0.00 0.00 89 1012.0
20200710150025 75 82 0.0 5.0 0.00 0.00 0.00 89 1012.1
20200710144626 75 317 1.0 4.0 0.00 0.00 0.00 89 1012.3
20200710143031 75 108 0.0 3.0 0.00 0.00 0.00 89 1012.1
20200710141520 75 93 0.0 4.0 0.00 0.00 0.00 89 1011.9
20200710140045 75 48 0.0 3.0 0.00 0.00 0.00 89 1011.8
20200710134523 74 46 1.0 4.0 0.00 0.00 0.00 90 1011.8
20200710133029 74 96 1.0 3.0 0.00 0.00 0.00 90 1011.9
20200710131609 73 53 0.0 6.0 0.00 0.00 0.00 91 1012.0
20200710130022 74 309 0.0 4.0 0.00 0.00 0.00 90 1012.3
20200710124544 74 42 0.0 6.0 0.00 0.00 0.00 90 1012.4
20200710123023 74 73 2.0 6.0 0.00 0.00 0.00 89 1012.3
20200710121508 74 89 2.0 9.0 0.00 0.00 0.00 91 1012.5
20200710120023 73 98 1.0 8.0 0.00 0.00 0.00 92 1012.6
20200710114520 73 55 2.0 8.0 0.00 0.00 0.00 93 1012.8
20200710113013 72 52 3.0 6.0 0.00 0.00 0.00 93 1012.6
20200710111507 72 94 1.0 7.0 0.00 0.00 0.00 94 1012.4
20200710110008 72 94 1.0 3.0 0.00 0.00 0.00 95 1012.4
20200710104507 71 81 0.0 2.0 0.00 0.00 0.00 96 1012.5
20200710103117 71 68 0.0 1.0 0.00 0.00 0.00 96 1012.8
20200710101621 71 70 0.0 2.0 0.00 0.00 0.00 96 1013.0
20200710100308 71 63 0.0 1.0 0.00 0.00 0.00 96 1013.2
20200710094710 71 64 0.0 1.0 0.00 0.00 0.00 96 1013.3
20200710093129 71 68 0.0 2.0 0.00 0.00 0.00 96 1013.2
20200710091709 72 68 0.0 3.0 0.00 0.00 0.00 96 1013.3
20200710090131 72 63 0.0 3.0 0.00 0.00 0.00 96 1013.4
20200710084708 71 26 0.0 0.0 0.00 0.00 0.00 96 1013.5
20200710083129 71 26 0.0 1.0 0.00 0.00 0.00 96 1013.6
20200710081614 71 26 0.0 0.0 0.00 0.00 0.00 95 1013.6
20200710080153 72 39 0.0 1.0 0.00 0.00 0.00 94 1013.8
20200710074604 72 78 0.0 0.0 0.00 0.00 0.00 94 1013.8
20200710073115 72 78 0.0 1.0 0.00 0.00 0.00 94 1014.0
20200710071545 72 78 0.0 0.0 0.00 0.00 0.00 94 1014.2
20200710070123 72 78 0.0 1.0 0.00 0.00 0.00 94 1014.5
20200710064605 72 78 0.0 0.0 0.00 0.00 0.00 93 1014.4
20200710063105 73 78 0.0 1.0 0.00 0.00 0.00 92 1014.5
20200710061604 73 78 0.0 1.0 0.00 0.00 0.00 91 1014.5
20200710060100 74 156 0.0 1.0 0.00 0.00 0.00 91 1014.3
20200710054602 74 153 0.0 0.0 0.00 0.00 0.00 90 1014.4
20200710053120 74 162 0.0 1.0 0.00 0.00 0.00 89 1014.2
20200710051623 75 150 0.0 1.0 0.00 0.00 0.00 88 1014.1
20200710050151 75 153 0.0 2.0 0.00 0.00 0.00 87 1014.1
20200710044535 75 147 0.0 3.0 0.00 0.00 0.00 86 1014.0
20200710043041 75 84 0.0 1.0 0.00 0.00 0.00 85 1014.4
20200710041547 76 89 0.0 0.0 0.00 0.00 0.00 84 1014.2
20200710040033 76 88 0.0 1.0 0.00 0.00 0.00 83 1014.0
20200710034518 77 81 0.0 3.0 0.00 0.00 0.00 82 1014.1
20200710033020 77 86 0.0 1.0 0.00 0.00 0.00 82 1014.1
20200710031518 77 167 0.0 2.0 0.00 0.00 0.00 81 1013.9
20200710030059 78 154 0.0 2.0 0.00 0.00 0.00 80 1013.5
20200710024536 78 158 0.0 2.0 0.00 0.00 0.00 79 1013.7
20200710023026 78 151 0.0 2.0 0.00 0.00 0.00 79 1013.7